METAR AND TAF INFORMATION
METAR FOR LIPB
ADDS - METARS form results

(1951 UTC 31 January 2023)
Data provider http://aviationweather.gov/metar/data/
 
Forecast for: LIPB (BOLZANO(CIV/IT-A, IT)
Text: TAF LIPB 311700Z 3118/0118 VRB05KT CAVOK
Forecast period: 1800 UTC 31 January 2023 to 1800 UTC 01 February 2023
Forecast type: FROM: standard forecast or significant change
Winds: variable direction winds at 6 MPH (5 knots; 2.6 m/s)
Visibility: 6 or more miles (10+ km)
Ceiling: unknown
Clouds: missing
Weather: NSW  (no significant weather)

 AIRPORT MAP

 RUNWAY INFORMATION
Runway 01 Runway length 4255 ft Runway width 98 ft
Runway elevation 771 ft Runway displaced threshold 0 ft Runway heading 10
Runway 19 Runway length 4255 ft Runway width 98 ft
Runway elevation 788 ft Runway displaced threshold 200 ft Runway heading 190
Runway 01R Runway length 2290 ft Runway width 66 ft
Runway elevation 773 ft Runway displaced threshold 0 ft Runway heading 11
Runway 19L Runway length 2290 ft Runway width 66 ft
Runway elevation 782 ft Runway displaced threshold 0 ft Runway heading 191

 AIRPORT FREQUENCIES
Type AFIS Name INFO Frequency 120.6 MHZ

 AIRPORT NEAR NAVIGATION AIDS
Type NDB Name Bolzano Frequency 362 KHZ
Type VOR-DME Name Bolzano Frequency 117050 KHZ



Air Greece virtual AIrline - All rights reserved 2018 - Powered by Virtual Airlines Manager [v2.6.2]